Share

Barney, ND (58008)

Stern (KBWP) Elev 968 ft | 46.24 °N, 96.61 °W | Change Station

Current weather conditions updated 30 minutes ago

Clear
Clear
23 °F
Feels Like 16 °F
N
6
Wind Variable Wind from North
Sunrise 6:37 AM
Sunset 8:18 PM
Moon Waning Gibbous

Today is forecast to be Much Warmer than yesterday.

Pressure 30.29 in
Visibility 10.0 miles
Clouds Clear
Windchill 16 °F
Dew Point 18 °F
Humidity 80%
Rainfall 0.00 in
Snow Depth Not available.
UV 0 out of 16
Pollen 8.00 out of 12
Air Quality Not available.
Flu Activity Sporadic
METAR KBWP 171155Z AUTO 35005KT 10SM CLR M05/M08 A3029 RMK AO1

More Conditions Fewer Conditions

Pressure 30.29 in
Visibility 10.0 miles
Clouds Clear
Windchill 16 °F
Dew Point 18 °F
Humidity 80%
Rainfall 0.00 in
Snow Depth Not available.
UV 0 out of 16
Pollen 8.00 out of 12
Air Quality Not available.
Flu Activity Sporadic
METAR KBWP 171155Z AUTO 35005KT 10SM CLR M05/M08 A3029 RMK AO1

More Conditions Fewer Conditions

10-Day Forecast

Almanac

Astronomy

Apr. 17, 2014 Rise Set
Actual Time 6:37 AM CDT 8:18 PM CDT
Civil Twilight 6:06 AM CDT 8:49 PM CDT
Nautical Twilight 5:27 AM CDT 9:28 PM CDT
Astronomical Twilight 4:45 AM CDT 10:10 PM CDT
Moon 11:12 PM CDT 8:04 AM CDT
Length of Visible Light 14h 43m
Length of Day
13h 40m
Tomorrow will be 3m 7s longer.
Waning Gibbous, 94% of the Moon is Illuminated
Today
Waning Gibbous
Apr 22
Last Quarter
Apr 29
New
May 6
First Quarter
May 14
Full

Today's Extremes

State Highs State Lows

Community

  • sunset from izmir, narlıdere
    sunset from izmir, narlıdere
  • Sunset over the Bay
    Sunset over the Bay
  • Sunrise Serenade
    Sunrise Serenade
  • symphony in blue....
    symphony in blue....
  • Dawn Surprise
    Dawn Surprise

WunderPhotos

Upload Photos

1,701,934 photos uploaded!

Nearby

Snow Depth

Station Depth Elevation
No new snow has been reported.

Coastal Water Temperatures

Place Temperature
No Stations Reporting

Earthquake Activity

City Distance Mag. Time & Date
No recent earthquake activity has been reported nearby.
Minimum magnitude displayed is 2.5.

Nearby Weather Stations

Station Location Temp. Windchill Dew Point Humidity Wind Precip. Elev Updated Type
NDDOT Wahpeton ND 13 MP 384.5, Mooreton, ND 22 °F 13 °F 22 °F 99% NNW  at  8 mph 0.00 in / hr 962 ft 6:10 AM CDT MADIS

Show More Stations Show Fewer Stations

What do you think?

We're not finished. Please let us know what you like, what you don't like, and what you are still missing.